Aviation Digital Data Service (ADDS)

Output produced by METARs form (1519 UTC 23 January 2019)
found at http://www.aviationweather.gov/metar/data/
 
METAR text: RKPC 231500Z 01007KT 330V060 CAVOK 07/M05 Q1024 NOSIG
Conditions at: RKPC (JEJU INTL AIRPO , KR) observed 1500 UTC 23 January 2019
Temperature: 7.0°C (45°F)
Dewpoint: -5.0°C (23°F) [RH = 42%]
Pressure (altimeter): 30.24 inches Hg (1024.0 mb)
Winds: from the N (10 degrees) at 8 MPH (7 knots; 3.6 m/s)
Visibility: 6 or more miles (10+ km)
Ceiling: ceiling and visibility are OK
Clouds: unknown
Weather: no significant weather observed at this time

METAR text: RKPC 231400Z 01007KT 320V060 CAVOK 07/M06 Q1024 NOSIG
Conditions at: RKPC (JEJU INTL AIRPO , KR) observed 1400 UTC 23 January 2019
Temperature: 7.0°C (45°F)
Dewpoint: -6.0°C (21°F) [RH = 39%]
Pressure (altimeter): 30.24 inches Hg (1024.0 mb)
Winds: from the N (10 degrees) at 8 MPH (7 knots; 3.6 m/s)
Visibility: 6 or more miles (10+ km)
Ceiling: ceiling and visibility are OK
Clouds: unknown
Weather: no significant weather observed at this time

METAR text: RKPC 231300Z 34005KT 310V010 9999 FEW030 07/M02 Q1023 NOSIG
Conditions at: RKPC (JEJU INTL AIRPO , KR) observed 1300 UTC 23 January 2019
Temperature: 7.0°C (45°F)
Dewpoint: -2.0°C (28°F) [RH = 53%]
Pressure (altimeter): 30.21 inches Hg (1023.0 mb)
Winds: from the NNW (340 degrees) at 6 MPH (5 knots; 2.6 m/s)
Visibility: 6 or more miles (10+ km)
Ceiling: at least 12,000 feet AGL
Clouds: few clouds at 3000 feet AGL
Weather: no significant weather observed at this time

METAR text: RKPC 231200Z 34006KT 300V360 CAVOK 08/M02 Q1023 NOSIG
Conditions at: RKPC (JEJU INTL AIRPO , KR) observed 1200 UTC 23 January 2019
Temperature: 8.0°C (46°F)
Dewpoint: -2.0°C (28°F) [RH = 49%]
Pressure (altimeter): 30.21 inches Hg (1023.0 mb)
Winds: from the NNW (340 degrees) at 7 MPH (6 knots; 3.1 m/s)
Visibility: 6 or more miles (10+ km)
Ceiling: ceiling and visibility are OK
Clouds: unknown
Weather: no significant weather observed at this time

METAR text: RKPC 231100Z 33007KT 300V360 9999 FEW030 08/M02 Q1023 NOSIG
Conditions at: RKPC (JEJU INTL AIRPO , KR) observed 1100 UTC 23 January 2019
Temperature: 8.0°C (46°F)
Dewpoint: -2.0°C (28°F) [RH = 49%]
Pressure (altimeter): 30.21 inches Hg (1023.0 mb)
Winds: from the NNW (330 degrees) at 8 MPH (7 knots; 3.6 m/s)
Visibility: 6 or more miles (10+ km)
Ceiling: at least 12,000 feet AGL
Clouds: few clouds at 3000 feet AGL
Weather: no significant weather observed at this time

METAR text: RKPC 231000Z 32008KT 280V350 8000 FEW035 09/M01 Q1023 NOSIG
Conditions at: RKPC (JEJU INTL AIRPO , KR) observed 1000 UTC 23 January 2019
Temperature: 9.0°C (48°F)
Dewpoint: -1.0°C (30°F) [RH = 49%]
Pressure (altimeter): 30.21 inches Hg (1023.0 mb)
Winds: from the NW (320 degrees) at 9 MPH (8 knots; 4.1 m/s)
Visibility: 5 miles ( 8 km)
Ceiling: at least 12,000 feet AGL
Clouds: few clouds at 3500 feet AGL
Weather: no significant weather observed at this time

METAR text: RKPC 230900Z 32008KT 280V350 9999 FEW030 09/01 Q1022 NOSIG
Conditions at: RKPC (JEJU INTL AIRPO , KR) observed 0900 UTC 23 January 2019
Temperature: 9.0°C (48°F)
Dewpoint: 1.0°C (34°F) [RH = 57%]
Pressure (altimeter): 30.18 inches Hg (1022.0 mb)
Winds: from the NW (320 degrees) at 9 MPH (8 knots; 4.1 m/s)
Visibility: 6 or more miles (10+ km)
Ceiling: at least 12,000 feet AGL
Clouds: few clouds at 3000 feet AGL
Weather: no significant weather observed at this time

METAR text: RKPC 230800Z 30008KT 9999 FEW030 10/01 Q1022 NOSIG
Conditions at: RKPC (JEJU INTL AIRPO , KR) observed 0800 UTC 23 January 2019
Temperature: 10.0°C (50°F)
Dewpoint: 1.0°C (34°F) [RH = 53%]
Pressure (altimeter): 30.18 inches Hg (1022.0 mb)
Winds: from the WNW (300 degrees) at 9 MPH (8 knots; 4.1 m/s)
Visibility: 6 or more miles (10+ km)
Ceiling: at least 12,000 feet AGL
Clouds: few clouds at 3000 feet AGL
Weather: no significant weather observed at this time

METAR text: RKPC 230700Z 31009KT 280V340 9999 FEW030 10/00 Q1021 NOSIG
Conditions at: RKPC (JEJU INTL AIRPO , KR) observed 0700 UTC 23 January 2019
Temperature: 10.0°C (50°F)
Dewpoint: 0.0°C (32°F) [RH = 50%]
Pressure (altimeter): 30.15 inches Hg (1021.0 mb)
Winds: from the NW (310 degrees) at 10 MPH (9 knots; 4.6 m/s)
Visibility: 6 or more miles (10+ km)
Ceiling: at least 12,000 feet AGL
Clouds: few clouds at 3000 feet AGL
Weather: no significant weather observed at this time

METAR text: RKPC 230600Z 29008KT 260V340 9999 FEW030 11/01 Q1021 NOSIG
Conditions at: RKPC (JEJU INTL AIRPO , KR) observed 0600 UTC 23 January 2019
Temperature: 11.0°C (52°F)
Dewpoint: 1.0°C (34°F) [RH = 50%]
Pressure (altimeter): 30.15 inches Hg (1021.0 mb)
Winds: from the WNW (290 degrees) at 9 MPH (8 knots; 4.1 m/s)
Visibility: 6 or more miles (10+ km)
Ceiling: at least 12,000 feet AGL
Clouds: few clouds at 3000 feet AGL
Weather: no significant weather observed at this time

METAR text: RKPC 230500Z 31008KT 270V330 CAVOK 11/M01 Q1022 NOSIG
Conditions at: RKPC (JEJU INTL AIRPO , KR) observed 0500 UTC 23 January 2019
Temperature: 11.0°C (52°F)
Dewpoint: -1.0°C (30°F) [RH = 43%]
Pressure (altimeter): 30.18 inches Hg (1022.0 mb)
Winds: from the NW (310 degrees) at 9 MPH (8 knots; 4.1 m/s)
Visibility: 6 or more miles (10+ km)
Ceiling: ceiling and visibility are OK
Clouds: unknown
Weather: no significant weather observed at this time

METAR text: RKPC 230400Z 30007KT 260V320 CAVOK 11/M03 Q1022 NOSIG
Conditions at: RKPC (JEJU INTL AIRPO , KR) observed 0400 UTC 23 January 2019
Temperature: 11.0°C (52°F)
Dewpoint: -3.0°C (27°F) [RH = 37%]
Pressure (altimeter): 30.18 inches Hg (1022.0 mb)
Winds: from the WNW (300 degrees) at 8 MPH (7 knots; 3.6 m/s)
Visibility: 6 or more miles (10+ km)
Ceiling: ceiling and visibility are OK
Clouds: unknown
Weather: no significant weather observed at this time

METAR text: RKPC 230300Z 30007KT 260V320 CAVOK 10/M01 Q1022 NOSIG
Conditions at: RKPC (JEJU INTL AIRPO , KR) observed 0300 UTC 23 January 2019
Temperature: 10.0°C (50°F)
Dewpoint: -1.0°C (30°F) [RH = 46%]
Pressure (altimeter): 30.18 inches Hg (1022.0 mb)
Winds: from the WNW (300 degrees) at 8 MPH (7 knots; 3.6 m/s)
Visibility: 6 or more miles (10+ km)
Ceiling: ceiling and visibility are OK
Clouds: unknown
Weather: no significant weather observed at this time

METAR text: RKPC 230200Z 29007KT 260V330 CAVOK 10/M01 Q1022 NOSIG
Conditions at: RKPC (JEJU INTL AIRPO , KR) observed 0200 UTC 23 January 2019
Temperature: 10.0°C (50°F)
Dewpoint: -1.0°C (30°F) [RH = 46%]
Pressure (altimeter): 30.18 inches Hg (1022.0 mb)
Winds: from the WNW (290 degrees) at 8 MPH (7 knots; 3.6 m/s)
Visibility: 6 or more miles (10+ km)
Ceiling: ceiling and visibility are OK
Clouds: unknown
Weather: no significant weather observed at this time

METAR text: RKPC 230100Z 28007KT 9999 SCT030 09/01 Q1022 NOSIG
Conditions at: RKPC (JEJU INTL AIRPO , KR) observed 0100 UTC 23 January 2019
Temperature: 9.0°C (48°F)
Dewpoint: 1.0°C (34°F) [RH = 57%]
Pressure (altimeter): 30.18 inches Hg (1022.0 mb)
Winds: from the W (280 degrees) at 8 MPH (7 knots; 3.6 m/s)
Visibility: 6 or more miles (10+ km)
Ceiling: at least 12,000 feet AGL
Clouds: scattered clouds at 3000 feet AGL
Weather: no significant weather observed at this time

METAR text: RKPC 230000Z 26005KT 220V300 9999 FEW030 08/01 Q1021 NOSIG
Conditions at: RKPC (JEJU INTL AIRPO , KR) observed 0000 UTC 23 January 2019
Temperature: 8.0°C (46°F)
Dewpoint: 1.0°C (34°F) [RH = 61%]
Pressure (altimeter): 30.15 inches Hg (1021.0 mb)
Winds: from the W (260 degrees) at 6 MPH (5 knots; 2.6 m/s)
Visibility: 6 or more miles (10+ km)
Ceiling: at least 12,000 feet AGL
Clouds: few clouds at 3000 feet AGL
Weather: no significant weather observed at this time

METAR text: RKPC 222300Z 24007KT 9999 FEW030 05/00 Q1021 NOSIG
Conditions at: RKPC (JEJU INTL AIRPO , KR) observed 2300 UTC 22 January 2019
Temperature: 5.0°C (41°F)
Dewpoint: 0.0°C (32°F) [RH = 70%]
Pressure (altimeter): 30.15 inches Hg (1021.0 mb)
Winds: from the WSW (240 degrees) at 8 MPH (7 knots; 3.6 m/s)
Visibility: 6 or more miles (10+ km)
Ceiling: at least 12,000 feet AGL
Clouds: few clouds at 3000 feet AGL
Weather: no significant weather observed at this time

METAR text: RKPC 222200Z 22008KT 9999 SCT030 05/01 Q1021 NOSIG
Conditions at: RKPC (JEJU INTL AIRPO , KR) observed 2200 UTC 22 January 2019
Temperature: 5.0°C (41°F)
Dewpoint: 1.0°C (34°F) [RH = 75%]
Pressure (altimeter): 30.15 inches Hg (1021.0 mb)
Winds: from the SW (220 degrees) at 9 MPH (8 knots; 4.1 m/s)
Visibility: 6 or more miles (10+ km)
Ceiling: at least 12,000 feet AGL
Clouds: scattered clouds at 3000 feet AGL
Weather: no significant weather observed at this time

METAR text: RKPC 222100Z 23008KT 9000 SCT030 05/01 Q1020 NOSIG
Conditions at: RKPC (JEJU INTL AIRPO , KR) observed 2100 UTC 22 January 2019
Temperature: 5.0°C (41°F)
Dewpoint: 1.0°C (34°F) [RH = 75%]
Pressure (altimeter): 30.12 inches Hg (1020.0 mb)
Winds: from the SW (230 degrees) at 9 MPH (8 knots; 4.1 m/s)
Visibility: 6 miles ( 9 km)
Ceiling: at least 12,000 feet AGL
Clouds: scattered clouds at 3000 feet AGL
Weather: no significant weather observed at this time

METAR text: RKPC 222000Z 22007KT 9000 SCT030 06/01 Q1021 NOSIG
Conditions at: RKPC (JEJU INTL AIRPO , KR) observed 2000 UTC 22 January 2019
Temperature: 6.0°C (43°F)
Dewpoint: 1.0°C (34°F) [RH = 70%]
Pressure (altimeter): 30.15 inches Hg (1021.0 mb)
Winds: from the SW (220 degrees) at 8 MPH (7 knots; 3.6 m/s)
Visibility: 6 miles ( 9 km)
Ceiling: at least 12,000 feet AGL
Clouds: scattered clouds at 3000 feet AGL
Weather: no significant weather observed at this time

METAR text: RKPC 221900Z 22007KT 9000 SCT030 05/00 Q1021 NOSIG
Conditions at: RKPC (JEJU INTL AIRPO , KR) observed 1900 UTC 22 January 2019
Temperature: 5.0°C (41°F)
Dewpoint: 0.0°C (32°F) [RH = 70%]
Pressure (altimeter): 30.15 inches Hg (1021.0 mb)
Winds: from the SW (220 degrees) at 8 MPH (7 knots; 3.6 m/s)
Visibility: 6 miles ( 9 km)
Ceiling: at least 12,000 feet AGL
Clouds: scattered clouds at 3000 feet AGL
Weather: no significant weather observed at this time

METAR text: RKPC 221800Z 21008KT 9000 FEW030 05/00 Q1021 NOSIG
Conditions at: RKPC (JEJU INTL AIRPO , KR) observed 1800 UTC 22 January 2019
Temperature: 5.0°C (41°F)
Dewpoint: 0.0°C (32°F) [RH = 70%]
Pressure (altimeter): 30.15 inches Hg (1021.0 mb)
Winds: from the SSW (210 degrees) at 9 MPH (8 knots; 4.1 m/s)
Visibility: 6 miles ( 9 km)
Ceiling: at least 12,000 feet AGL
Clouds: few clouds at 3000 feet AGL
Weather: no significant weather observed at this time

METAR text: RKPC 221700Z 21008KT 9000 FEW030 05/00 Q1021 NOSIG
Conditions at: RKPC (JEJU INTL AIRPO , KR) observed 1700 UTC 22 January 2019
Temperature: 5.0°C (41°F)
Dewpoint: 0.0°C (32°F) [RH = 70%]
Pressure (altimeter): 30.15 inches Hg (1021.0 mb)
Winds: from the SSW (210 degrees) at 9 MPH (8 knots; 4.1 m/s)
Visibility: 6 miles ( 9 km)
Ceiling: at least 12,000 feet AGL
Clouds: few clouds at 3000 feet AGL
Weather: no significant weather observed at this time

METAR text: RKPC 221600Z 21008KT 9000 FEW030 05/00 Q1022 NOSIG
Conditions at: RKPC (JEJU INTL AIRPO , KR) observed 1600 UTC 22 January 2019
Temperature: 5.0°C (41°F)
Dewpoint: 0.0°C (32°F) [RH = 70%]
Pressure (altimeter): 30.18 inches Hg (1022.0 mb)
Winds: from the SSW (210 degrees) at 9 MPH (8 knots; 4.1 m/s)
Visibility: 6 miles ( 9 km)
Ceiling: at least 12,000 feet AGL
Clouds: few clouds at 3000 feet AGL
Weather: no significant weather observed at this time

METAR text: RKPC 221500Z 24005KT 200V280 9000 FEW030 05/00 Q1022 NOSIG
Conditions at: RKPC (JEJU INTL AIRPO , KR) observed 1500 UTC 22 January 2019
Temperature: 5.0°C (41°F)
Dewpoint: 0.0°C (32°F) [RH = 70%]
Pressure (altimeter): 30.18 inches Hg (1022.0 mb)
Winds: from the WSW (240 degrees) at 6 MPH (5 knots; 2.6 m/s)
Visibility: 6 miles ( 9 km)
Ceiling: at least 12,000 feet AGL
Clouds: few clouds at 3000 feet AGL
Weather: no significant weather observed at this time

METAR text: RKPC 221400Z 26008KT 220V300 9000 FEW030 07/M00 Q1022 NOSIG
Conditions at: RKPC (JEJU INTL AIRPO , KR) observed 1400 UTC 22 January 2019
Temperature: 7.0°C (45°F)
Dewpoint: 0.0°C (32°F) [RH = 61%]
Pressure (altimeter): 30.18 inches Hg (1022.0 mb)
Winds: from the W (260 degrees) at 9 MPH (8 knots; 4.1 m/s)
Visibility: 6 miles ( 9 km)
Ceiling: at least 12,000 feet AGL
Clouds: few clouds at 3000 feet AGL
Weather: no significant weather observed at this time

METAR text: RKPC 221300Z 29007KT 260V330 9000 SCT030 09/01 Q1022 NOSIG
Conditions at: RKPC (JEJU INTL AIRPO , KR) observed 1300 UTC 22 January 2019
Temperature: 9.0°C (48°F)
Dewpoint: 1.0°C (34°F) [RH = 57%]
Pressure (altimeter): 30.18 inches Hg (1022.0 mb)
Winds: from the WNW (290 degrees) at 8 MPH (7 knots; 3.6 m/s)
Visibility: 6 miles ( 9 km)
Ceiling: at least 12,000 feet AGL
Clouds: scattered clouds at 3000 feet AGL
Weather: no significant weather observed at this time

METAR text: RKPC 221200Z 30008KT 9999 SCT035 09/01 Q1022 NOSIG
Conditions at: RKPC (JEJU INTL AIRPO , KR) observed 1200 UTC 22 January 2019
Temperature: 9.0°C (48°F)
Dewpoint: 1.0°C (34°F) [RH = 57%]
Pressure (altimeter): 30.18 inches Hg (1022.0 mb)
Winds: from the WNW (300 degrees) at 9 MPH (8 knots; 4.1 m/s)
Visibility: 6 or more miles (10+ km)
Ceiling: at least 12,000 feet AGL
Clouds: scattered clouds at 3500 feet AGL
Weather: no significant weather observed at this time

METAR text: RKPC 221100Z 30008KT 9999 SCT035 09/M00 Q1022 NOSIG
Conditions at: RKPC (JEJU INTL AIRPO , KR) observed 1100 UTC 22 January 2019
Temperature: 9.0°C (48°F)
Dewpoint: 0.0°C (32°F) [RH = 53%]
Pressure (altimeter): 30.18 inches Hg (1022.0 mb)
Winds: from the WNW (300 degrees) at 9 MPH (8 knots; 4.1 m/s)
Visibility: 6 or more miles (10+ km)
Ceiling: at least 12,000 feet AGL
Clouds: scattered clouds at 3500 feet AGL
Weather: no significant weather observed at this time

METAR text: RKPC 221000Z 29007KT 9999 SCT035 09/M00 Q1021 NOSIG
Conditions at: RKPC (JEJU INTL AIRPO , KR) observed 1000 UTC 22 January 2019
Temperature: 9.0°C (48°F)
Dewpoint: 0.0°C (32°F) [RH = 53%]
Pressure (altimeter): 30.15 inches Hg (1021.0 mb)
Winds: from the WNW (290 degrees) at 8 MPH (7 knots; 3.6 m/s)
Visibility: 6 or more miles (10+ km)
Ceiling: at least 12,000 feet AGL
Clouds: scattered clouds at 3500 feet AGL
Weather: no significant weather observed at this time

METAR text: RKPC 220900Z 28007KT 260V330 9999 SCT035 09/M01 Q1021 NOSIG
Conditions at: RKPC (JEJU INTL AIRPO , KR) observed 0900 UTC 22 January 2019
Temperature: 9.0°C (48°F)
Dewpoint: -1.0°C (30°F) [RH = 49%]
Pressure (altimeter): 30.15 inches Hg (1021.0 mb)
Winds: from the W (280 degrees) at 8 MPH (7 knots; 3.6 m/s)
Visibility: 6 or more miles (10+ km)
Ceiling: at least 12,000 feet AGL
Clouds: scattered clouds at 3500 feet AGL
Weather: no significant weather observed at this time

METAR text: RKPC 220800Z 28007KT 250V310 9999 FEW030 09/M02 Q1021 NOSIG
Conditions at: RKPC (JEJU INTL AIRPO , KR) observed 0800 UTC 22 January 2019
Temperature: 9.0°C (48°F)
Dewpoint: -2.0°C (28°F) [RH = 46%]
Pressure (altimeter): 30.15 inches Hg (1021.0 mb)
Winds: from the W (280 degrees) at 8 MPH (7 knots; 3.6 m/s)
Visibility: 6 or more miles (10+ km)
Ceiling: at least 12,000 feet AGL
Clouds: few clouds at 3000 feet AGL
Weather: no significant weather observed at this time

METAR text: RKPC 220700Z 29007KT 260V330 CAVOK 09/M03 Q1021 NOSIG
Conditions at: RKPC (JEJU INTL AIRPO , KR) observed 0700 UTC 22 January 2019
Temperature: 9.0°C (48°F)
Dewpoint: -3.0°C (27°F) [RH = 43%]
Pressure (altimeter): 30.15 inches Hg (1021.0 mb)
Winds: from the WNW (290 degrees) at 8 MPH (7 knots; 3.6 m/s)
Visibility: 6 or more miles (10+ km)
Ceiling: ceiling and visibility are OK
Clouds: unknown
Weather: no significant weather observed at this time

METAR text: RKPC 220600Z 28008KT 250V320 9999 FEW035 10/M00 Q1021 NOSIG
Conditions at: RKPC (JEJU INTL AIRPO , KR) observed 0600 UTC 22 January 2019
Temperature: 10.0°C (50°F)
Dewpoint: 0.0°C (32°F) [RH = 50%]
Pressure (altimeter): 30.15 inches Hg (1021.0 mb)
Winds: from the W (280 degrees) at 9 MPH (8 knots; 4.1 m/s)
Visibility: 6 or more miles (10+ km)
Ceiling: at least 12,000 feet AGL
Clouds: few clouds at 3500 feet AGL
Weather: no significant weather observed at this time

METAR text: RKPC 220500Z 27007KT 240V310 9999 FEW030 10/00 Q1021 NOSIG
Conditions at: RKPC (JEJU INTL AIRPO , KR) observed 0500 UTC 22 January 2019
Temperature: 10.0°C (50°F)
Dewpoint: 0.0°C (32°F) [RH = 50%]
Pressure (altimeter): 30.15 inches Hg (1021.0 mb)
Winds: from the W (270 degrees) at 8 MPH (7 knots; 3.6 m/s)
Visibility: 6 or more miles (10+ km)
Ceiling: at least 12,000 feet AGL
Clouds: few clouds at 3000 feet AGL
Weather: no significant weather observed at this time

METAR text: RKPC 220400Z 30007KT 260V330 9999 SCT035 BKN180 09/00 Q1022 NOSIG
Conditions at: RKPC (JEJU INTL AIRPO , KR) observed 0400 UTC 22 January 2019
Temperature: 9.0°C (48°F)
Dewpoint: 0.0°C (32°F) [RH = 53%]
Pressure (altimeter): 30.18 inches Hg (1022.0 mb)
Winds: from the WNW (300 degrees) at 8 MPH (7 knots; 3.6 m/s)
Visibility: 6 or more miles (10+ km)
Ceiling: 18000 feet AGL
Clouds: scattered clouds at 3500 feet AGL
broken clouds at 18000 feet AGL
Weather: no significant weather observed at this time

Forecast for: RKPC (JEJU INTL AIRPO , KR)
Text: TAF RKPC 231100Z 2312/2418 34006KT 9999 FEW030 TN03/2321Z TX09/2405Z
Forecast period: 1200 UTC 23 January 2019 to 1000 UTC 24 January 2019
Forecast type: FROM: standard forecast or significant change
Winds: from the NNW (340 degrees) at 7 MPH (6 knots; 3.1 m/s)
Visibility: 6 or more miles 10+ km)
Ceiling: at least 12,000 feet AGL
Clouds: few clouds at 3000 feet AGL
Weather: no significant weather forecast for this period
Text: BECMG 2410/2411 18005KT
Forecast period: 1000 to 1800 UTC 24 January 2019
Forecast type: BECOMING: Conditions expected to become as follows by 1100 UTC 24 January 2019
Winds: from the S (180 degrees) at 6 MPH (5 knots; 2.6 m/s)
Visibility: 6 or more miles 10+ km)
Ceiling: at least 12,000 feet AGL
Clouds: few clouds at 3000 feet AGL
Weather: no significant weather forecast for this period